首页
METAR-TAF:

METAR-TAF

机场 :

柏林-泰格尔奥托·利林塔尔机场

柏林, 德国

纬度: 52-34N, 经度: 013-19E, 海拔: 37米

当前天气观测

该预报发布于21分钟前的22:50 UTC
风速4节,风向东转东北,在东北之间变化
温度 15°C
湿度 94%
气压 1002 hPa
能见度10公里或以上
1500米以下无云,无积雨云

METAR: EDDT 202250Z 07004KT 040V100 CAVOK 15/14 Q1002

时间: 01:11 (23:11 UTC)

预报

该预报发布于3小时和4分钟前的20:07 UTC
预报有效从20日的 20点(UTC)到 21日的 18点(UTC)
风速5节,风向
能见度10公里或以上
少量云层高于3000英尺
短暂存在
从 20日的 20点(UTC)到 20日的 24点(UTC)
多云层高于800英尺
成为
从 20日的 22点(UTC)到 21日的 02点(UTC)
能見度: 2000
轻雾
短暂存在
从 21日的 00点(UTC)到 21日的 05点(UTC)
能見度: 0500
多云层高于200英尺
成为
从 21日的 04点(UTC)到 21日的 08点(UTC)
能见度10公里或以上
1500米以下无云,无积雨云

TAF: EDDT 202007Z 2020/2118 09005KT 9999 FEW030 TEMPO 2020/2024 BKN008 BECMG 2022/2102 2000 BR TEMPO 2100/2105 0500 FG BKN002 BECMG 2104/2108 CAVOK

超过4000个机场的气象观测和天气预报(METAR&TAF报告)。

可查询的气象台以黄色和红色小点在地图上表示。

将鼠标移到小点上方,可查看气象台名称。

然后点击查看天气观测和预报。

如需切换地图:点击带黑十字的绿色按钮放大地图;点击带横线的绿色按钮缩小地图;或者点击绿色箭头查看邻近地区的地图。


METAR-TAF: